METAR Principali Aeroporti Italiani

 

LIPF - Ferrara, It
Distance from station: 8 km
Updated: Mon, 21-May-2018 11:55am CEST
Few Clouds
Few Clouds
 Wind from NNE
Wind: NNE 5 mph , 7 km/h
Temperature: 82°F , 28°C
Heat Index: 83°F , 28°C
Dew Point: 63°F , 17°C
Humidity: 51%
Barometer: 29.94 inHg , 1014 hPa
Clouds: Few Clouds
Visibility: 6 miles , 10 km
Cloud details: Few Clouds 4000 ft
2018/05/21 09:55 LIPF 210955Z 03004KT 9999 FEW040 28/17 Q1014
LIPE - Bologna Borgo Panigale, It
Distance from station: 46 km
Updated: Mon, 21-May-2018 12:20pm CEST
Few Clouds
Few Clouds
 Wind from varies
Wind: varies 5 mph , 7 km/h
Temperature: 73°F , 23°C
Dew Point: 55°F , 13°C
Humidity: 53%
Barometer: 29.97 inHg , 1015 hPa
Clouds: Few Clouds
Visibility: 6 miles , 10 km
Cloud details: Few Clouds 5000 ft
2018/05/21 10:20 LIPE 211020Z VRB04KT 9999 FEW050 23/13 Q1015
LIMF - Torino Caselle, It
Distance from station: 320 km
Updated: Mon, 21-May-2018 12:20pm CEST
Mostly Cloudy
Mostly Cloudy
 Wind from E
Wind: E 13 mph , 20 km/h
Temperature: 63°F , 17°C
Dew Point: 55°F , 13°C
Humidity: 77%
Barometer: 30.03 inHg , 1017 hPa
Clouds: Mostly Cloudy
Visibility: 6 miles , 10 km
Cloud details: Partly Cloudy 3500 ft
Mostly Cloudy 6000 ft
2018/05/21 10:20 LIMF 211020Z 09011KT 9999 SCT035 BKN060 17/13 Q1017
 
LIML - Milano Malpensa, It
Distance from station: 249 km
Updated: Mon, 21-May-2018 12:20pm CEST
Partly Cloudy
Partly Cloudy
 Wind from varies
Wind: varies 5 mph , 7 km/h
Temperature: 73°F , 23°C
Dew Point: 52°F , 11°C
Humidity: 47%
Barometer: 29.97 inHg , 1015 hPa
Clouds: Partly Cloudy
Visibility: 6 miles , 10 km
Cloud details: Partly Cloudy 4000 ft
2018/05/21 10:20 LIML 211020Z VRB04KT 9999 SCT040 23/11 Q1015 NOSIG
LIME - Bergamo Orio al Serio, It
Distance from station: 181 km
Updated: Mon, 21-May-2018 12:20pm CEST
Few Clouds
Few Clouds
 Wind from SSW
Wind: SSW 7 mph , 11 km/h
Temperature: 72°F , 22°C
Dew Point: 52°F , 11°C
Humidity: 50%
Barometer: 30 inHg , 1016 hPa
Clouds: Few Clouds
Visibility: 6 miles , 10 km
Cloud details: Few Clouds 4000 ft
2018/05/21 10:20 LIME 211020Z 20006KT 160V270 9999 FEW040 22/11 Q1016 NOSIG
LIPZ - Venezia Tessera, It
Distance from station: 93 km
Updated: Mon, 21-May-2018 12:20pm CEST
Clear
Clear
 Wind from E
Wind: E 9 mph , 15 km/h
Temperature: 77°F , 25°C
Dew Point: 55°F , 13°C
Humidity: 47%
Barometer: 29.94 inHg , 1014 hPa
Summary: Clear
Visibility: greater than 7 miles , 10 km
2018/05/21 10:20 LIPZ 211020Z 08008KT CAVOK 25/13 Q1014 NOSIG
 
LIVT - Trieste, It
Distance from station: 179 km
Updated: Mon, 21-May-2018 10:55am CEST
NOT Current
Clear
Clear
 Wind from E
Wind: E 8 mph , 13 km/h, Gust: 20 mph , 31 km/h
Temperature: 77°F , 25°C
Dew Point: 55°F , 13°C
Humidity: 47%
Barometer: 29.94 inHg , 1014 hPa
Summary: Clear
Visibility: greater than 7 miles , 10 km
2018/05/21 08:55 LIVT 210855Z 08007G17KT CAVOK 25/13 Q1014 RMK FEW FEW200 QUK 2 QUL 2 NE VIS MAR 20 KM VIS MIN 9999
LIMJ - Genova, It
Distance from station: 229 km
Updated: Mon, 21-May-2018 12:20pm CEST
Clear
Clear
 Wind from N
Wind: N 13 mph , 20 km/h
Temperature: 73°F , 23°C
Dew Point: 55°F , 13°C
Humidity: 53%
Barometer: 29.91 inHg , 1013 hPa
Summary: Clear
Visibility: greater than 7 miles , 10 km
2018/05/21 10:20 LIMJ 211020Z 01011KT 340V040 CAVOK 23/13 Q1013
LIRQ - Firenze Amerigo Vespucci, It
Distance from station: 119 km
Updated: Mon, 21-May-2018 12:20pm CEST
Partly Cloudy
Partly Cloudy
 Wind from NNE
Wind: NNE 10 mph , 17 km/h
Temperature: 79°F , 26°C
Dew Point: 57°F , 14°C
Humidity: 48%
Barometer: 29.88 inHg , 1012 hPa
Clouds: Partly Cloudy
Visibility: 6 miles , 10 km
Cloud details: Partly Cloudy 4000 ft
2018/05/21 10:20 LIRQ 211020Z 02009KT 340V050 9999 SCT040 26/14 Q1012
 
LIPY - Ancona, It
Distance from station: 189 km
Updated: Mon, 21-May-2018 11:50am CEST
Clear
Clear
 Wind from NNW
Wind: NNW 10 mph , 17 km/h
Temperature: 72°F , 22°C
Dew Point: 63°F , 17°C
Humidity: 73%
Barometer: 29.91 inHg , 1013 hPa
Summary: Clear
Visibility: greater than 7 miles , 10 km
2018/05/21 09:50 LIPY 210950Z 34009KT CAVOK 22/17 Q1013
LIBP - Pescara, It
Distance from station: 333 km
Updated: Mon, 21-May-2018 11:50am CEST
Clear
Clear
 Wind from NNE
Wind: NNE 7 mph , 11 km/h
Temperature: 73°F , 23°C
Dew Point: 61°F , 16°C
Humidity: 65%
Barometer: 29.91 inHg , 1013 hPa
Summary: Clear
Visibility: greater than 7 miles , 10 km
2018/05/21 09:50 LIBP 210950Z 03006KT 350V070 CAVOK 23/16 Q1013
LIRF - Roma-Fiumicino, It
Distance from station: km
Updated: Mon, 21-May-2018 12:20pm CEST
Light drizzle, Partly cloudy
Light drizzle, Partly cloudy
 Wind from NNE
Wind: NNE 6 mph , 9 km/h
Temperature: 72°F , 22°C
Dew Point: 59°F , 15°C
Humidity: 65%
Barometer: 29.88 inHg , 1012 hPa
Summary: Light Drizzle
Clouds: Partly Cloudy
Visibility: 6 miles , 10 km
Cloud details: Few Clouds 2500 ft
Partly Cloudy 3000 ft
2018/05/21 10:20 LIRF 211020Z 03005KT 340V060 9999 -DZ FEW025 SCT030 22/15 Q1012 NOSIG
 
LIRN - Napoli Capodichino, It
Distance from station: km
Updated: Mon, 21-May-2018 12:20pm CEST
Mostly Cloudy
Mostly Cloudy
 Wind from varies
Wind: varies 2 mph , 4 km/h
Temperature: 75°F , 24°C
Dew Point: 59°F , 15°C
Humidity: 57%
Barometer: 29.91 inHg , 1013 hPa
Clouds: Mostly Cloudy
Visibility: 6 miles , 10 km
Cloud details: Mostly Cloudy 5000 ft
2018/05/21 10:20 LIRN 211020Z VRB02KT 9999 BKN050 24/15 Q1013 NOSIG
LIBD - Bari Palese, It
Distance from station: km
Updated: Mon, 21-May-2018 12:20pm CEST
Clear
Clear
 Wind from NE
Wind: NE 8 mph , 13 km/h
Temperature: 72°F , 22°C
Dew Point: 54°F , 12°C
Humidity: 53%
Barometer: 29.91 inHg , 1013 hPa
Summary: Clear
Visibility: greater than 7 miles , 10 km
2018/05/21 10:20 LIBD 211020Z 04007KT 330V070 CAVOK 22/12 Q1013
LIBG - Taranto Grottaglie, It
Distance from station: km
Updated: Mon, 21-May-2018 11:50am CEST
Few Clouds
Few Clouds
 Wind from ENE
Wind: ENE 6 mph , 9 km/h
Temperature: 81°F , 27°C
Heat Index: 81°F , 27°C
Dew Point: 59°F , 15°C
Humidity: 48%
Barometer: 29.85 inHg , 1011 hPa
Clouds: Few Clouds
Visibility: 6 miles , 10 km
Cloud details: Few Clouds 2500 ft
2018/05/21 09:50 LIBG 210950Z 07005KT 9999 FEW025 27/15 Q1011
 
LICR - Reggio Calabria, It
Distance from station: km
Updated: Mon, 21-May-2018 11:50am CEST
Clear
Clear
 Wind from SSW
Wind: SSW 8 mph , 13 km/h
Temperature: 75°F , 24°C
Dew Point: 61°F , 16°C
Humidity: 61%
Barometer: 29.91 inHg , 1013 hPa
Summary: Clear
Visibility: greater than 7 miles , 10 km
2018/05/21 09:50 LICR 210950Z 20007KT CAVOK 24/16 Q1013
LICJ - Palermo Punta Raisi, It
Distance from station: km
Updated: Mon, 21-May-2018 12:20pm CEST
Clear
Clear
 Wind from NNE
Wind: NNE 6 mph , 9 km/h
Temperature: 70°F , 21°C
Dew Point: 63°F , 17°C
Humidity: 78%
Barometer: 29.88 inHg , 1012 hPa
Summary: Clear
Visibility: greater than 7 miles , 10 km
2018/05/21 10:20 LICJ 211020Z 03005KT CAVOK 21/17 Q1012
LICC - Catania Fontanarossa, It
Distance from station: km
Updated: Mon, 21-May-2018 12:20pm CEST
Clear
Clear
 Wind from E
Wind: E 8 mph , 13 km/h
Temperature: 75°F , 24°C
Dew Point: 59°F , 15°C
Humidity: 57%
Barometer: 29.91 inHg , 1013 hPa
Summary: Clear
Visibility: greater than 7 miles , 10 km
2018/05/21 10:20 LICC 211020Z 08007KT 050V110 CAVOK 24/15 Q1013
 
LIEE - Cagliari Elmas, It
Distance from station: km
Updated: Mon, 21-May-2018 12:20pm CEST
Light rain, Partly cloudy
Light rain, Partly cloudy
 Wind from SSE
Wind: SSE 9 mph , 15 km/h
Temperature: 63°F , 17°C
Dew Point: 59°F , 15°C
Humidity: 88%
Barometer: 29.88 inHg , 1012 hPa
Summary: Light Rain
Clouds: Partly Cloudy
Visibility: 6 miles , 10 km
Cloud details: Few Clouds 1000 ft
Partly Cloudy 3500 ft
2018/05/21 10:20 LIEE 211020Z 16008KT 9999 -RA FEW010 SCT035 17/15 Q1012
LIEO - Olbia, It
Distance from station: km
Updated: Mon, 21-May-2018 12:20pm CEST
Light rain, Mostly cloudy
Light rain, Mostly cloudy
 Wind from SSE
Wind: SSE 5 mph , 7 km/h
Temperature: 64°F , 18°C
Dew Point: 61°F , 16°C
Humidity: 88%
Barometer: 29.88 inHg , 1012 hPa
Summary: Light Rain
Clouds: Mostly Cloudy
Visibility: 5 miles , 8 km
Cloud details: Mostly Cloudy 2500 ft
2018/05/21 10:20 LIEO 211020Z 15004KT 8000 -RA BKN025 18/16 Q1012
LICG - Pantelleria, It
Distance from station: km
Updated: Mon, 21-May-2018 11:55am CEST
Clear
Clear
 Wind from ENE
Wind: ENE 10 mph , 17 km/h
Temperature: 72°F , 22°C
Dew Point: 66°F , 19°C
Humidity: 83%
Barometer: 29.91 inHg , 1013 hPa
Summary: Clear
Visibility: greater than 7 miles , 10 km
2018/05/21 09:55 LICG 210955Z 06009KT CAVOK 22/19 Q1013

Metar display script from Saratoga-Weather.org